Capetan Vassilis — C6S2085 — position and weather

sailwx.info

Track history (hours):
 
Tides and Currents Weather Stations Pressure Air Temp Water Temp Dewpoint Dewpoint Depression Visibility Wind Speed Wind Dir Waves Ship Positions

Capetan Vassilis

Last reported at 2016-Apr-29 12:15 UTC. Time now 2016-Apr-29 15:58 UTC.
Position N 40°25' E 029°05'.

Length 191 m; draft 8.5 m.

MMSI: 311552000.

Date/timePositionNaut miles runAvg speedWind from/ knotsBaromVisibWave heightAir tempDewpointWater temp
2016-Apr-29 12:15N 40°25' E 029°05'0 0.0
2016-Apr-29 11:21N 40°25' E 029°05'0 0.0
2016-Apr-29 10:27N 40°25' E 029°05'0 0.0
2016-Apr-29 09:09N 40°25' E 029°05'0 0.0
2016-Apr-29 08:33N 40°25' E 029°05'0 0.0
2016-Apr-29 07:27N 40°25' E 029°05'0 0.0
2016-Apr-29 06:27N 40°25' E 029°05'0 0.0
2016-Apr-29 05:21N 40°25' E 029°05'0 0.0
2016-Apr-29 04:27N 40°25' E 029°05'0 0.0
2016-Apr-29 03:33N 40°25' E 029°05'0 0.0
2016-Apr-29 02:33N 40°25' E 029°05'0 0.0
2016-Apr-29 01:21N 40°25' E 029°05'0 0.0
2016-Apr-29 00:15N 40°25' E 029°05'0 0.0
2016-Apr-28 23:27N 40°25' E 029°05'0 0.0
2016-Apr-28 22:21N 40°25' E 029°05'0 0.0
2016-Apr-28 19:27N 40°25' E 029°05'0 0.0
2016-Apr-28 16:33N 40°25' E 029°05'1 0.1
2016-Apr-28 02:17N 40°27' E 029°05'0 0.0
2016-Apr-28 01:17N 40°27' E 029°05'1 0.1
2016-Apr-27 16:12N 40°27' E 029°05'2 1.9
2016-Apr-27 15:23N 40°27' E 029°03'  
2016-Apr-24 22:05N 36°36' E 014°44'714.3
2016-Apr-24 21:33N 36°38' E 014°35'1413.7
2016-Apr-24 20:33N 36°41' E 014°18'1313.3
2016-Apr-24 19:34N 36°43' E 014°02'1313.1
2016-Apr-24 18:33N 36°46' E 013°46'1513.2
2016-Apr-24 17:25N 36°50' E 013°28'52013.1
2016-Apr-23 01:33N 36°55' E 002°37'8013.4
2016-Apr-22 19:33N 36°44' E 000°57'1913.6
2016-Apr-22 18:11N 36°41' E 000°35'913.9
2016-Apr-22 17:33N 36°39' E 000°24'4013.2
2016-Apr-22 14:29N 36°34' W 000°26'1213.3
2016-Apr-22 13:33N 36°32' W 000°41'21513.2
2016-Apr-21 21:14N 36°06' W 005°06'912.7
2016-Apr-21 20:33N 36°06' W 005°17'4 4.1
2016-Apr-21 19:32N 36°07' W 005°22'0 0.2
2016-Apr-21 18:29N 36°07' W 005°22'0 0.1
2016-Apr-21 17:26N 36°07' W 005°22'0 0.1
2016-Apr-21 16:29N 36°07' W 005°22'0 0.1
2016-Apr-21 15:32N 36°07' W 005°22'0 0.2
2016-Apr-21 14:28N 36°07' W 005°22'0 0.1
2016-Apr-21 12:28N 36°07' W 005°22'0 0.1
2016-Apr-21 10:33N 36°07' W 005°22'3 2.7
2016-Apr-21 09:33N 36°05' W 005°22'1110.8
2016-Apr-21 08:34N 35°57' W 005°31'  
Track history (hours):
 
Tides and Currents Weather Stations Pressure Air Temp Water Temp Dewpoint Dewpoint Depression Visibility Wind Speed Wind Dir Waves Ship Positions

Capetan Vassilis

Last reported at 2016-Apr-29 12:15 UTC. Time now 2016-Apr-29 15:58 UTC.
Position N 40°25' E 029°05'.

Length 191 m; draft 8.5 m.

MMSI: 311552000.

Date/timePositionNaut miles runAvg speedWind from/ knotsBaromVisibWave heightAir tempDewpointWater temp
2016-Apr-29 12:15N 40°25' E 029°05'0 0.0
2016-Apr-29 11:21N 40°25' E 029°05'0 0.0
2016-Apr-29 10:27N 40°25' E 029°05'0 0.0
2016-Apr-29 09:09N 40°25' E 029°05'0 0.0
2016-Apr-29 08:33N 40°25' E 029°05'0 0.0
2016-Apr-29 07:27N 40°25' E 029°05'0 0.0
2016-Apr-29 06:27N 40°25' E 029°05'0 0.0
2016-Apr-29 05:21N 40°25' E 029°05'0 0.0
2016-Apr-29 04:27N 40°25' E 029°05'0 0.0
2016-Apr-29 03:33N 40°25' E 029°05'0 0.0
2016-Apr-29 02:33N 40°25' E 029°05'0 0.0
2016-Apr-29 01:21N 40°25' E 029°05'0 0.0
2016-Apr-29 00:15N 40°25' E 029°05'0 0.0
2016-Apr-28 23:27N 40°25' E 029°05'0 0.0
2016-Apr-28 22:21N 40°25' E 029°05'0 0.0
2016-Apr-28 19:27N 40°25' E 029°05'0 0.0
2016-Apr-28 16:33N 40°25' E 029°05'1 0.1
2016-Apr-28 02:17N 40°27' E 029°05'0 0.0
2016-Apr-28 01:17N 40°27' E 029°05'1 0.1
2016-Apr-27 16:12N 40°27' E 029°05'2 1.9
2016-Apr-27 15:23N 40°27' E 029°03'  
2016-Apr-24 22:05N 36°36' E 014°44'714.3
2016-Apr-24 21:33N 36°38' E 014°35'1413.7
2016-Apr-24 20:33N 36°41' E 014°18'1313.3
2016-Apr-24 19:34N 36°43' E 014°02'1313.1
2016-Apr-24 18:33N 36°46' E 013°46'1513.2
2016-Apr-24 17:25N 36°50' E 013°28'52013.1
2016-Apr-23 01:33N 36°55' E 002°37'8013.4
2016-Apr-22 19:33N 36°44' E 000°57'1913.6
2016-Apr-22 18:11N 36°41' E 000°35'913.9
2016-Apr-22 17:33N 36°39' E 000°24'4013.2
2016-Apr-22 14:29N 36°34' W 000°26'1213.3
2016-Apr-22 13:33N 36°32' W 000°41'21513.2
2016-Apr-21 21:14N 36°06' W 005°06'912.7
2016-Apr-21 20:33N 36°06' W 005°17'4 4.1
2016-Apr-21 19:32N 36°07' W 005°22'0 0.2
2016-Apr-21 18:29N 36°07' W 005°22'0 0.1
2016-Apr-21 17:26N 36°07' W 005°22'0 0.1
2016-Apr-21 16:29N 36°07' W 005°22'0 0.1
2016-Apr-21 15:32N 36°07' W 005°22'0 0.2
2016-Apr-21 14:28N 36°07' W 005°22'0 0.1
2016-Apr-21 12:28N 36°07' W 005°22'0 0.1
2016-Apr-21 10:33N 36°07' W 005°22'3 2.7
2016-Apr-21 09:33N 36°05' W 005°22'1110.8
2016-Apr-21 08:34N 35°57' W 005°31'  

Dump ship's entire track history